createdAt,value
2023-02-08T00:00:00.904Z,-7.40
2023-02-08T00:02:30.711Z,-7.30
2023-02-08T00:05:00.589Z,-7.40
2023-02-08T00:07:30.799Z,-7.30
2023-02-08T00:10:00.901Z,-7.40
2023-02-08T00:12:33.338Z,-7.00
2023-02-08T00:15:03.560Z,-6.90
2023-02-08T00:17:33.418Z,-7.00
2023-02-08T00:20:03.613Z,-7.00
2023-02-08T00:22:34.080Z,-7.40
2023-02-08T00:25:04.243Z,-7.50
2023-02-08T00:27:37.467Z,-7.30
2023-02-08T00:30:08.819Z,-7.00
2023-02-08T00:32:38.605Z,-7.10
2023-02-08T00:35:09.357Z,-7.00
2023-02-08T00:37:39.166Z,-7.00
2023-02-08T00:40:10.318Z,-6.90
2023-02-08T00:42:43.434Z,-7.30
2023-02-08T00:45:13.802Z,-7.30
2023-02-08T00:47:43.645Z,-7.20
2023-02-08T00:50:14.891Z,-7.30
2023-02-08T00:52:44.947Z,-7.40
2023-02-08T00:55:15.600Z,-7.30
2023-02-08T00:57:48.135Z,-7.30
2023-02-08T01:00:18.849Z,-6.80
2023-02-08T01:02:48.700Z,-6.80
2023-02-08T01:05:18.915Z,-7.50
2023-02-08T01:07:48.784Z,-7.20
2023-02-08T01:10:19.852Z,-7.50
2023-02-08T01:12:52.637Z,-7.30
2023-02-08T01:15:23.252Z,-7.90
2023-02-08T01:17:56.895Z,-7.70
2023-02-08T01:20:27.235Z,-7.20
2023-02-08T01:22:57.035Z,-7.50
2023-02-08T01:25:27.028Z,-7.30
2023-02-08T01:27:59.529Z,-7.60
2023-02-08T01:30:30.014Z,-7.00
2023-02-08T01:32:59.920Z,-7.30
2023-02-08T01:35:31.395Z,-7.00
2023-02-08T01:38:01.271Z,-6.80
2023-02-08T01:40:31.573Z,-7.40
2023-02-08T01:43:03.995Z,-7.00
2023-02-08T01:45:35.343Z,-6.80
2023-02-08T01:48:18.424Z,-6.80
2023-02-08T01:50:54.600Z,-6.80
2023-02-08T01:53:27.261Z,-6.80
2023-02-08T01:56:01.458Z,-6.90
2023-02-08T01:58:39.174Z,-7.20
2023-02-08T02:01:09.784Z,-7.30
2023-02-08T02:03:39.682Z,-7.30
2023-02-08T02:06:14.046Z,-7.40
2023-02-08T02:08:52.514Z,-7.00
2023-02-08T02:11:23.390Z,-7.10
2023-02-08T02:14:00.158Z,-7.00
2023-02-08T02:16:30.552Z,-7.50
2023-02-08T02:19:00.627Z,-7.20
2023-02-08T02:21:44.041Z,-7.50
2023-02-08T02:24:31.485Z,-7.20
2023-02-08T02:27:36.269Z,-6.80
2023-02-08T02:30:32.390Z,-6.80
2023-02-08T02:33:19.791Z,-7.00
2023-02-08T02:35:59.514Z,-6.80
2023-02-08T02:38:43.671Z,-7.00
2023-02-08T02:41:43.803Z,-7.50
2023-02-08T02:44:18.588Z,-7.60
2023-02-08T02:46:56.497Z,-7.20
2023-02-08T02:49:36.208Z,-7.00
2023-02-08T02:52:11.339Z,-7.10
2023-02-08T02:54:45.001Z,-7.30
2023-02-08T02:57:19.732Z,-6.90
2023-02-08T02:59:49.763Z,-7.20
2023-02-08T03:02:19.830Z,-7.40
2023-02-08T03:04:57.204Z,-7.40
2023-02-08T03:08:08.693Z,-6.90
2023-02-08T03:11:06.119Z,-7.30
2023-02-08T03:13:49.546Z,-7.00
2023-02-08T03:16:22.672Z,-6.80
2023-02-08T03:19:04.337Z,-6.80
2023-02-08T03:21:44.527Z,-6.80
2023-02-08T03:24:24.980Z,-6.70
2023-02-08T03:26:59.010Z,-6.60
2023-02-08T03:29:41.974Z,-6.80
2023-02-08T03:32:14.622Z,-6.80
2023-02-08T03:34:50.769Z,-7.40
2023-02-08T03:37:26.685Z,-7.00
2023-02-08T03:40:02.456Z,-7.40
2023-02-08T03:42:36.306Z,-7.60
2023-02-08T03:45:11.447Z,-7.60
2023-02-08T03:47:45.268Z,-7.70
2023-02-08T03:50:19.072Z,-7.20
2023-02-08T03:52:53.767Z,-7.30
2023-02-08T03:55:26.116Z,-7.20
2023-02-08T03:57:59.699Z,-7.40
2023-02-08T04:00:31.389Z,-7.20
2023-02-08T04:03:07.150Z,-7.40
2023-02-08T04:05:37.457Z,-7.30
2023-02-08T04:08:10.478Z,-7.00
2023-02-08T04:10:40.737Z,-7.10
2023-02-08T04:13:10.985Z,-7.20
2023-02-08T04:15:40.732Z,-7.50
2023-02-08T04:18:10.856Z,-7.70
2023-02-08T04:20:40.929Z,-7.80
2023-02-08T04:23:14.031Z,-7.70
2023-02-08T04:25:43.870Z,-7.50
2023-02-08T04:28:13.853Z,-7.80
2023-02-08T04:30:43.948Z,-7.90
2023-02-08T04:33:15.808Z,-7.60
2023-02-08T04:35:45.949Z,-7.70
2023-02-08T04:38:18.659Z,-7.80
2023-02-08T04:40:48.578Z,-7.40
2023-02-08T04:43:18.713Z,-7.40
2023-02-08T04:45:48.794Z,-7.00
2023-02-08T04:48:18.805Z,-7.40
2023-02-08T04:50:49.812Z,-7.40
2023-02-08T04:53:22.626Z,-7.50
2023-02-08T04:55:52.445Z,-7.30
2023-02-08T04:58:22.614Z,-7.50
2023-02-08T05:00:52.473Z,-7.80
2023-02-08T05:03:22.674Z,-7.90
2023-02-08T05:06:00.301Z,-7.80
2023-02-08T05:08:33.191Z,-7.80
2023-02-08T05:11:03.475Z,-7.60
2023-02-08T05:13:33.946Z,-7.90
2023-02-08T05:16:03.833Z,-7.50
2023-02-08T05:18:34.665Z,-7.70
2023-02-08T05:21:04.842Z,-7.70
2023-02-08T05:23:37.670Z,-7.90
2023-02-08T05:26:09.480Z,-7.50
2023-02-08T05:28:41.737Z,-7.30
2023-02-08T05:31:14.710Z,-7.50
2023-02-08T05:33:45.344Z,-7.20
2023-02-08T05:36:15.330Z,-7.50
2023-02-08T05:38:47.735Z,-7.20
2023-02-08T05:41:17.794Z,-7.40
2023-02-08T05:43:48.951Z,-7.50
2023-02-08T05:46:18.809Z,-7.30
2023-02-08T05:48:49.509Z,-7.60
2023-02-08T05:51:20.893Z,-7.40
2023-02-08T05:53:53.911Z,-7.40
2023-02-08T05:56:23.670Z,-7.60
2023-02-08T05:58:53.978Z,-7.70
2023-02-08T06:01:24.250Z,-7.70
2023-02-08T06:03:54.851Z,-7.70
2023-02-08T06:06:24.723Z,-7.40
2023-02-08T06:08:58.573Z,-7.80
2023-02-08T06:11:28.324Z,-7.60
2023-02-08T06:13:58.667Z,-7.70
2023-02-08T06:16:28.531Z,-7.70
2023-02-08T06:18:59.153Z,-7.20
2023-02-08T06:21:28.915Z,-7.40
2023-02-08T06:24:01.580Z,-7.20
2023-02-08T06:26:31.334Z,-7.40
2023-02-08T06:29:02.541Z,-7.60
2023-02-08T06:31:32.392Z,-7.50
2023-02-08T06:34:03.404Z,-7.80
2023-02-08T06:36:34.062Z,-7.40
2023-02-08T06:39:07.807Z,-7.50
2023-02-08T06:41:37.556Z,-7.40
2023-02-08T06:44:07.524Z,-7.70
2023-02-08T06:46:37.309Z,-7.70
2023-02-08T06:49:07.111Z,-7.10
2023-02-08T06:51:36.892Z,-7.40
2023-02-08T06:54:10.165Z,-7.40
2023-02-08T06:56:39.976Z,-7.40
2023-02-08T06:59:09.927Z,-7.20
2023-02-08T07:01:39.757Z,-7.30
2023-02-08T07:04:09.684Z,-7.40
2023-02-08T07:06:39.481Z,-7.20
2023-02-08T07:09:13.721Z,-7.40
2023-02-08T07:11:43.473Z,-7.50
2023-02-08T07:14:15.874Z,-7.40
2023-02-08T07:16:45.832Z,-7.20
2023-02-08T07:19:16.023Z,-6.60
2023-02-08T07:21:46.348Z,-6.50
2023-02-08T07:24:18.746Z,-6.60
2023-02-08T07:26:48.537Z,-6.40
2023-02-08T07:29:19.430Z,-6.90
2023-02-08T07:31:49.457Z,-6.60
2023-02-08T07:34:22.052Z,-6.30
2023-02-08T07:36:52.027Z,-6.30
2023-02-08T07:39:24.852Z,-6.30
2023-02-08T07:41:54.770Z,-6.50
2023-02-08T07:44:25.513Z,-6.10
2023-02-08T07:46:55.315Z,-6.00
2023-02-08T07:49:25.446Z,-5.40
2023-02-08T07:51:55.213Z,-5.50
2023-02-08T07:54:28.012Z,-5.10
2023-02-08T07:56:57.799Z,-5.10
2023-02-08T07:59:28.484Z,-5.00
2023-02-08T08:01:58.409Z,-4.30
2023-02-08T08:04:28.485Z,-4.20
2023-02-08T08:06:58.298Z,-4.50
2023-02-08T08:09:31.020Z,-4.10
2023-02-08T08:12:00.865Z,-3.90
2023-02-08T08:14:31.054Z,-3.70
2023-02-08T08:17:00.844Z,-4.10
2023-02-08T08:19:31.124Z,-4.00
2023-02-08T08:22:00.903Z,-3.80
2023-02-08T08:24:35.676Z,-3.50
2023-02-08T08:27:05.931Z,-3.10
2023-02-08T08:29:37.372Z,-3.20
2023-02-08T08:32:07.826Z,-2.70
2023-02-08T08:34:37.938Z,-2.80
2023-02-08T08:37:07.811Z,-2.70
2023-02-08T08:39:40.185Z,-2.50
2023-02-08T08:42:09.915Z,-2.20
2023-02-08T08:44:40.185Z,-2.40
2023-02-08T08:47:11.992Z,-2.20
2023-02-08T08:49:43.629Z,-1.70
2023-02-08T08:52:14.418Z,-1.60
2023-02-08T08:54:47.430Z,-1.60
2023-02-08T08:57:17.520Z,-1.50
2023-02-08T08:59:47.501Z,-1.40
2023-02-08T09:02:18.102Z,-1.30
2023-02-08T09:04:48.026Z,-0.90
2023-02-08T09:07:17.808Z,-1.10
2023-02-08T09:09:50.806Z,-0.50
2023-02-08T09:12:20.584Z,-0.50
2023-02-08T09:14:51.149Z,-0.20
2023-02-08T09:17:21.062Z,0.10
2023-02-08T09:19:51.039Z,0.00
2023-02-08T09:22:21.090Z,0.00
2023-02-08T09:24:55.704Z,0.30
2023-02-08T09:27:25.617Z,0.40
2023-02-08T09:29:55.706Z,0.50
2023-02-08T09:32:25.580Z,0.50
2023-02-08T09:34:57.131Z,0.60
2023-02-08T09:37:26.947Z,0.70
2023-02-08T09:40:00.645Z,1.10
2023-02-08T09:42:43.503Z,1.60
2023-02-08T09:45:31.130Z,1.20
2023-02-08T09:48:06.600Z,1.40
2023-02-08T09:50:40.549Z,1.40
2023-02-08T09:53:17.649Z,1.60
2023-02-08T09:55:53.005Z,1.70
2023-02-08T09:58:29.377Z,2.10
2023-02-08T10:01:00.179Z,1.90
2023-02-08T10:03:39.123Z,1.90
2023-02-08T10:06:12.261Z,2.00
2023-02-08T10:08:43.162Z,2.00
2023-02-08T10:11:37.548Z,2.30
2023-02-08T10:14:31.654Z,1.80
2023-02-08T10:17:11.116Z,2.50
2023-02-08T10:19:56.639Z,2.10
2023-02-08T10:22:38.885Z,1.90
2023-02-08T10:25:26.258Z,2.20
2023-02-08T10:28:19.668Z,1.80
2023-02-08T10:30:54.898Z,1.90
2023-02-08T10:33:29.385Z,2.10
2023-02-08T10:36:00.211Z,2.10
2023-02-08T10:38:45.975Z,2.00
2023-02-08T10:41:21.317Z,2.20
2023-02-08T10:44:02.954Z,2.20
2023-02-08T10:46:38.350Z,2.40
2023-02-08T10:49:14.250Z,2.60
2023-02-08T10:51:44.298Z,2.60
2023-02-08T10:54:15.880Z,2.60
2023-02-08T10:56:54.124Z,2.50
2023-02-08T10:59:32.385Z,2.60
2023-02-08T11:02:02.582Z,2.60
2023-02-08T11:04:32.466Z,2.40
2023-02-08T11:07:22.430Z,2.40
2023-02-08T11:09:55.235Z,2.60
2023-02-08T11:12:26.232Z,2.60
2023-02-08T11:14:59.322Z,2.70
2023-02-08T11:17:31.764Z,3.00
2023-02-08T11:20:02.946Z,3.20
2023-02-08T11:22:34.879Z,3.10
2023-02-08T11:25:07.984Z,3.50
2023-02-08T11:27:42.046Z,3.50
2023-02-08T11:30:25.914Z,3.50
2023-02-08T11:33:18.616Z,3.20
2023-02-08T11:36:09.958Z,3.50
2023-02-08T11:38:44.856Z,3.20
2023-02-08T11:41:21.669Z,3.20
2023-02-08T11:44:02.278Z,3.40
2023-02-08T11:46:39.620Z,3.50
2023-02-08T11:49:09.489Z,3.50
2023-02-08T11:51:40.983Z,3.60
2023-02-08T11:54:41.467Z,3.30
2023-02-08T11:57:19.601Z,3.10
2023-02-08T11:59:50.032Z,3.70
2023-02-08T12:02:39.272Z,3.40
2023-02-08T12:05:16.086Z,3.50
2023-02-08T12:07:56.847Z,3.50
2023-02-08T12:10:59.152Z,3.50
2023-02-08T12:13:43.670Z,3.50
2023-02-08T12:16:32.985Z,3.60
2023-02-08T12:19:28.196Z,4.00
2023-02-08T12:22:05.247Z,3.80
2023-02-08T12:24:43.577Z,4.20
2023-02-08T12:27:27.447Z,4.10
2023-02-08T12:30:08.449Z,4.50
2023-02-08T12:32:48.706Z,4.50
2023-02-08T12:36:03.243Z,4.20
2023-02-08T12:39:17.859Z,4.70
2023-02-08T12:42:02.129Z,4.50
2023-02-08T12:44:39.243Z,4.60
2023-02-08T12:47:27.730Z,4.90
2023-02-08T12:50:11.458Z,4.90
2023-02-08T12:52:48.171Z,5.00
2023-02-08T12:55:24.502Z,5.20
2023-02-08T12:57:57.360Z,5.40
2023-02-08T13:00:30.914Z,5.10
2023-02-08T13:03:07.906Z,4.90
2023-02-08T13:05:46.190Z,4.60
2023-02-08T13:08:29.340Z,5.10
2023-02-08T13:11:17.994Z,4.80
2023-02-08T13:13:56.418Z,5.10
2023-02-08T13:16:31.260Z,4.80
2023-02-08T13:19:21.163Z,4.60
2023-02-08T13:21:54.374Z,4.80
2023-02-08T13:24:34.293Z,4.80
2023-02-08T13:27:07.036Z,4.70
2023-02-08T13:29:37.904Z,4.80
2023-02-08T13:35:27.483Z,4.80
2023-02-08T13:38:04.679Z,4.60
2023-02-08T13:40:39.406Z,4.50
2023-02-08T13:43:34.009Z,4.20
2023-02-08T13:46:06.706Z,4.10
2023-02-08T13:48:48.431Z,4.30
2023-02-08T13:51:53.661Z,3.90
2023-02-08T13:54:23.554Z,4.40
2023-02-08T13:56:56.455Z,4.20
2023-02-08T13:59:38.666Z,4.40
2023-02-08T14:02:32.725Z,4.20
2023-02-08T14:05:33.107Z,4.10
2023-02-08T14:08:05.462Z,4.80
2023-02-08T14:10:43.778Z,4.80
2023-02-08T14:13:30.251Z,4.60
2023-02-08T14:16:31.034Z,4.70
2023-02-08T14:19:02.571Z,4.80
2023-02-08T14:21:40.043Z,4.70
2023-02-08T14:24:21.807Z,4.90
2023-02-08T14:26:52.731Z,4.80
2023-02-08T14:29:31.146Z,4.60
2023-02-08T14:32:01.142Z,4.70
2023-02-08T14:34:36.804Z,4.30
2023-02-08T14:37:28.710Z,4.00
2023-02-08T14:40:28.224Z,3.80
2023-02-08T14:43:00.023Z,4.20
2023-02-08T14:45:34.693Z,4.40
2023-02-08T14:48:18.711Z,4.10
2023-02-08T14:50:56.570Z,4.30
2023-02-08T14:53:36.315Z,4.00
2023-02-08T14:56:17.378Z,3.90
2023-02-08T14:58:51.403Z,4.00
2023-02-08T15:01:34.483Z,3.80
2023-02-08T15:04:05.338Z,3.50
2023-02-08T15:07:01.636Z,3.80
2023-02-08T15:09:33.977Z,3.60
2023-02-08T15:12:06.884Z,3.20
2023-02-08T15:14:39.897Z,3.30
2023-02-08T15:17:23.842Z,3.20
2023-02-08T15:19:55.166Z,2.90
2023-02-08T15:22:35.552Z,2.90
2023-02-08T15:25:16.845Z,2.60
2023-02-08T15:27:51.604Z,2.60
2023-02-08T15:30:30.602Z,2.80
2023-02-08T15:33:05.718Z,2.70
2023-02-08T15:35:38.296Z,2.20
2023-02-08T15:38:14.295Z,2.30
2023-02-08T15:40:44.758Z,2.00
2023-02-08T15:43:15.996Z,2.10
2023-02-08T15:45:46.524Z,1.90
2023-02-08T15:48:19.100Z,2.00
2023-02-08T15:50:49.659Z,2.10
2023-02-08T15:53:19.845Z,2.00
2023-02-08T15:55:57.090Z,1.90
2023-02-08T15:58:31.799Z,1.80
2023-02-08T16:01:05.769Z,1.70
2023-02-08T16:03:39.362Z,1.60
2023-02-08T16:06:11.498Z,1.50
2023-02-08T16:08:45.177Z,1.30
2023-02-08T16:11:18.182Z,1.40
2023-02-08T16:13:52.659Z,1.20
2023-02-08T16:16:26.594Z,0.90
2023-02-08T16:19:04.365Z,0.70
2023-02-08T16:21:38.432Z,0.80
2023-02-08T16:24:24.124Z,0.30
2023-02-08T16:27:08.519Z,0.40
2023-02-08T16:29:40.917Z,0.20
2023-02-08T16:32:23.796Z,-0.10
2023-02-08T16:34:56.305Z,0.20
2023-02-08T16:37:30.089Z,-0.50
2023-02-08T16:40:02.412Z,-0.50
2023-02-08T16:42:36.178Z,-0.80
2023-02-08T16:45:18.957Z,-0.80
2023-02-08T16:47:52.126Z,-0.80
2023-02-08T16:50:26.454Z,-0.80
2023-02-08T16:52:58.458Z,-1.20
2023-02-08T16:55:33.014Z,-1.40
2023-02-08T16:58:03.392Z,-1.30
2023-02-08T17:00:36.069Z,-1.50
2023-02-08T17:03:06.329Z,-1.10
2023-02-08T17:05:41.384Z,-1.50
2023-02-08T17:08:17.527Z,-1.70
2023-02-08T17:10:52.057Z,-1.80
2023-02-08T17:13:24.530Z,-1.80
2023-02-08T17:15:54.984Z,-1.70
2023-02-08T17:18:25.692Z,-1.80
2023-02-08T17:20:59.992Z,-1.70
2023-02-08T17:23:29.873Z,-2.00
2023-02-08T17:26:00.127Z,-2.20
2023-02-08T17:28:31.636Z,-2.30
2023-02-08T17:31:01.967Z,-2.10
2023-02-08T17:33:36.460Z,-2.40
2023-02-08T17:36:11.008Z,-2.20
2023-02-08T17:38:41.922Z,-2.10
2023-02-08T17:41:15.625Z,-2.40
2023-02-08T17:43:45.782Z,-2.50
2023-02-08T17:46:20.276Z,-2.30
2023-02-08T17:48:50.385Z,-2.30
2023-02-08T17:51:25.131Z,-2.40
2023-02-08T17:53:55.148Z,-2.00
2023-02-08T17:56:28.988Z,-1.90
2023-02-08T17:59:00.977Z,-1.60
2023-02-08T18:01:30.961Z,-1.60
2023-02-08T18:04:03.076Z,-1.70
2023-02-08T18:06:35.658Z,-1.30
2023-02-08T18:09:05.592Z,-1.30
2023-02-08T18:11:35.909Z,-1.30
2023-02-08T18:14:05.728Z,-1.00
2023-02-08T18:16:36.861Z,-1.10
2023-02-08T18:19:06.792Z,-1.00
2023-02-08T18:21:39.414Z,-1.10
2023-02-08T18:24:09.986Z,-1.20
2023-02-08T18:26:40.210Z,-1.20
2023-02-08T18:29:10.313Z,-1.20
2023-02-08T18:31:40.805Z,-1.10
2023-02-08T18:34:10.728Z,-1.30
2023-02-08T18:36:43.291Z,-1.20
2023-02-08T18:39:16.205Z,-1.30
2023-02-08T18:41:46.436Z,-1.10
2023-02-08T18:44:16.308Z,-1.00
2023-02-08T18:46:48.176Z,-1.30
2023-02-08T18:49:19.420Z,-0.90
2023-02-08T18:51:52.191Z,-1.10
2023-02-08T18:54:21.976Z,-1.30
2023-02-08T18:56:56.097Z,-1.00
2023-02-08T18:59:26.612Z,-1.30
2023-02-08T19:01:57.582Z,-1.40
2023-02-08T19:04:28.240Z,-1.40
2023-02-08T19:07:00.971Z,-1.40
2023-02-08T19:09:30.902Z,-1.30
2023-02-08T19:12:01.191Z,-1.20
2023-02-08T19:14:31.029Z,-1.40
2023-02-08T19:17:01.154Z,-1.30
2023-02-08T19:19:31.184Z,-1.10
2023-02-08T19:22:03.913Z,-1.50
2023-02-08T19:24:33.750Z,-1.30
2023-02-08T19:27:05.276Z,-1.10
2023-02-08T19:29:36.730Z,-1.50
2023-02-08T19:32:08.118Z,-1.10
2023-02-08T19:34:38.033Z,-1.30
2023-02-08T19:37:11.290Z,-1.20
2023-02-08T19:39:41.360Z,-1.30
2023-02-08T19:42:12.067Z,-1.20
2023-02-08T19:44:41.874Z,-1.40
2023-02-08T19:47:12.517Z,-1.30
2023-02-08T19:49:42.330Z,-1.20
2023-02-08T19:52:20.275Z,-1.20
2023-02-08T19:54:52.886Z,-1.20
2023-02-08T19:57:23.149Z,-1.20
2023-02-08T19:59:52.926Z,-1.30
2023-02-08T20:02:24.678Z,-1.10
2023-02-08T20:04:54.485Z,-1.50
2023-02-08T20:07:28.657Z,-1.30
2023-02-08T20:09:58.465Z,-1.10
2023-02-08T20:12:28.840Z,-0.90
2023-02-08T20:14:58.659Z,-1.20
2023-02-08T20:17:28.616Z,-1.30
2023-02-08T20:19:58.440Z,-1.10
2023-02-08T20:22:31.076Z,-1.30
2023-02-08T20:25:00.820Z,-1.30
2023-02-08T20:27:32.690Z,-1.30
2023-02-08T20:30:02.481Z,-1.30
2023-02-08T20:32:32.624Z,-1.20
2023-02-08T20:35:02.600Z,-1.20
2023-02-08T20:37:35.811Z,-1.50
2023-02-08T20:40:06.545Z,-2.20
2023-02-08T20:42:37.695Z,-2.20
2023-02-08T20:45:08.913Z,-1.70
2023-02-08T20:47:46.413Z,-1.60
2023-02-08T20:50:19.678Z,-1.60
2023-02-08T20:52:53.224Z,-1.50
2023-02-08T20:55:23.056Z,-1.40
2023-02-08T20:57:53.413Z,-1.60
2023-02-08T21:00:25.988Z,-1.40
2023-02-08T21:03:04.134Z,-1.50
2023-02-08T21:05:33.941Z,-1.50
2023-02-08T21:08:06.907Z,-1.60
2023-02-08T21:10:39.042Z,-1.50
2023-02-08T21:13:09.253Z,-1.20
2023-02-08T21:15:44.407Z,-1.40
2023-02-08T21:18:14.781Z,-1.40
2023-02-08T21:20:44.889Z,-1.30
2023-02-08T21:23:18.276Z,-1.30
2023-02-08T21:25:47.990Z,-1.30
2023-02-08T21:28:18.266Z,-1.30
2023-02-08T21:30:48.644Z,-1.80
2023-02-08T21:33:19.626Z,-1.80
2023-02-08T21:35:49.571Z,-1.60
2023-02-08T21:38:22.431Z,-1.50
2023-02-08T21:40:52.192Z,-1.80
2023-02-08T21:43:22.612Z,-1.60
2023-02-08T21:45:52.385Z,-1.60
2023-02-08T21:48:22.165Z,-1.60
2023-02-08T21:51:04.463Z,-1.30
2023-02-08T21:53:49.988Z,-1.70
2023-02-08T21:56:19.807Z,-1.70
2023-02-08T21:58:50.350Z,-1.80
2023-02-08T22:01:20.262Z,-2.00
2023-02-08T22:03:50.442Z,-2.00
2023-02-08T22:06:20.186Z,-1.80
2023-02-08T22:08:53.031Z,-2.00
2023-02-08T22:11:22.841Z,-2.00
2023-02-08T22:13:52.899Z,-2.00
2023-02-08T22:16:22.673Z,-1.80
2023-02-08T22:18:52.967Z,-1.80
2023-02-08T22:21:22.720Z,-2.00
2023-02-08T22:23:56.006Z,-2.10
2023-02-08T22:26:26.274Z,-2.10
2023-02-08T22:28:57.032Z,-2.00
2023-02-08T22:31:27.259Z,-2.00
2023-02-08T22:33:57.180Z,-1.80
2023-02-08T22:36:26.954Z,-2.10
2023-02-08T22:38:59.569Z,-1.80
2023-02-08T22:41:29.331Z,-1.80
2023-02-08T22:43:59.603Z,-1.80
2023-02-08T22:46:29.606Z,-1.80
2023-02-08T22:49:00.515Z,-1.90
2023-02-08T22:51:30.354Z,-1.90
2023-02-08T22:54:03.663Z,-1.80
2023-02-08T22:56:33.395Z,-1.60
2023-02-08T22:59:03.854Z,-1.60
2023-02-08T23:01:33.597Z,-1.80
2023-02-08T23:04:03.809Z,-1.80
2023-02-08T23:06:35.621Z,-1.80
2023-02-08T23:09:09.650Z,-1.80
2023-02-08T23:11:39.455Z,-1.80
2023-02-08T23:14:09.616Z,-1.80
2023-02-08T23:16:39.357Z,-1.80
2023-02-08T23:19:15.545Z,-1.80
2023-02-08T23:21:46.711Z,-1.80
2023-02-08T23:24:20.009Z,-2.00
2023-02-08T23:26:49.805Z,-1.80
2023-02-08T23:29:20.393Z,-1.80
2023-02-08T23:31:50.267Z,-2.20
2023-02-08T23:34:20.214Z,-1.90
2023-02-08T23:36:50.537Z,-1.90
2023-02-08T23:39:24.855Z,-2.00
2023-02-08T23:41:57.345Z,-2.00
2023-02-08T23:44:27.387Z,-2.10
2023-02-08T23:46:57.324Z,-2.00
2023-02-08T23:49:27.402Z,-2.20
2023-02-08T23:51:57.246Z,-2.00
2023-02-08T23:54:30.227Z,-2.50
2023-02-08T23:57:00.104Z,-2.50
2023-02-08T23:59:30.877Z,-2.50
